createdAt,value
2018-08-11T00:00:26.001Z,1.83
2018-08-11T00:02:54.967Z,1.90
2018-08-11T00:05:23.634Z,1.90
2018-08-11T00:07:52.328Z,1.70
2018-08-11T00:10:21.344Z,2.07
2018-08-11T00:12:49.888Z,1.50
2018-08-11T00:15:20.039Z,1.40
2018-08-11T00:17:48.900Z,1.90
2018-08-11T00:20:20.609Z,1.60
2018-08-11T00:22:49.257Z,1.73
2018-08-11T00:25:18.147Z,1.63
2018-08-11T00:27:46.778Z,1.50
2018-08-11T00:30:19.810Z,1.90
2018-08-11T00:32:48.516Z,1.63
2018-08-11T00:35:17.238Z,1.43
2018-08-11T00:37:46.106Z,1.70
2018-08-11T00:40:16.659Z,1.60
2018-08-11T00:42:47.407Z,1.50
2018-08-11T00:45:16.900Z,1.80
2018-08-11T00:47:45.568Z,1.77
2018-08-11T00:50:24.220Z,2.10
2018-08-11T00:52:53.208Z,1.73
2018-08-11T00:55:22.100Z,1.60
2018-08-11T00:57:50.726Z,2.10
2018-08-11T01:00:20.007Z,2.17
2018-08-11T01:02:48.726Z,2.40
2018-08-11T01:05:18.680Z,2.30
2018-08-11T01:07:47.764Z,2.50
2018-08-11T01:10:16.763Z,1.90
2018-08-11T01:12:46.011Z,1.73
2018-08-11T01:15:16.611Z,1.90
2018-08-11T01:17:45.957Z,2.20
2018-08-11T01:20:14.732Z,2.20
2018-08-11T01:22:44.385Z,1.80
2018-08-11T01:25:13.589Z,1.87
2018-08-11T01:27:42.162Z,2.13
2018-08-11T01:30:16.347Z,1.77
2018-08-11T01:32:44.920Z,2.13
2018-08-11T01:35:13.885Z,2.53
2018-08-11T01:37:43.389Z,1.87
2018-08-11T01:40:13.155Z,1.97
2018-08-11T01:42:42.979Z,2.27
2018-08-11T01:45:12.436Z,1.80
2018-08-11T01:47:41.430Z,2.13
2018-08-11T01:50:11.264Z,2.53
2018-08-11T01:52:41.088Z,1.90
2018-08-11T01:55:10.782Z,2.20
2018-08-11T01:57:39.564Z,2.00
2018-08-11T02:00:09.792Z,2.07
2018-08-11T02:02:38.575Z,2.00
2018-08-11T02:05:07.743Z,1.90
2018-08-11T02:07:36.662Z,2.23
2018-08-11T02:10:06.934Z,2.73
2018-08-11T02:12:35.723Z,2.43
2018-08-11T02:15:05.285Z,3.30
2018-08-11T02:17:33.832Z,3.67
2018-08-11T02:20:02.386Z,3.83
2018-08-11T02:22:30.978Z,4.13
2018-08-11T02:24:59.569Z,4.60
2018-08-11T02:27:28.126Z,5.40
2018-08-11T02:29:56.660Z,4.70
2018-08-11T02:32:25.302Z,4.60
2018-08-11T02:34:53.846Z,4.20
2018-08-11T02:37:22.471Z,3.50
2018-08-11T02:39:51.010Z,3.37
2018-08-11T02:42:19.544Z,3.43
2018-08-11T02:44:48.198Z,2.80
2018-08-11T02:47:16.919Z,2.30
2018-08-11T02:49:45.487Z,1.93
2018-08-11T02:52:14.068Z,2.30
2018-08-11T02:54:42.711Z,2.13
2018-08-11T02:57:11.252Z,2.27
2018-08-11T02:59:39.871Z,3.13
2018-08-11T03:02:08.438Z,3.13
2018-08-11T03:04:37.034Z,3.57
2018-08-11T03:07:06.513Z,3.80
2018-08-11T03:09:35.331Z,2.90
2018-08-11T03:12:03.928Z,2.83
2018-08-11T03:14:32.516Z,2.63
2018-08-11T03:17:01.085Z,2.33
2018-08-11T03:19:29.741Z,2.70
2018-08-11T03:21:58.265Z,2.30
2018-08-11T03:24:27.005Z,1.93
2018-08-11T03:26:55.592Z,1.80
2018-08-11T03:29:24.105Z,1.53
2018-08-11T03:31:52.726Z,1.50
2018-08-11T03:34:21.252Z,1.90
2018-08-11T03:36:49.852Z,1.63
2018-08-11T03:39:18.390Z,1.93
2018-08-11T03:41:46.933Z,1.80
2018-08-11T03:44:15.504Z,1.77
2018-08-11T03:46:44.060Z,1.40
2018-08-11T03:49:12.663Z,1.70
2018-08-11T03:51:41.507Z,1.60
2018-08-11T03:54:10.025Z,2.03
2018-08-11T03:56:38.580Z,1.70
2018-08-11T03:59:07.324Z,1.83
2018-08-11T04:01:35.940Z,1.80
2018-08-11T04:04:04.523Z,1.90
2018-08-11T04:06:33.183Z,2.23
2018-08-11T04:09:02.047Z,1.70
2018-08-11T04:11:30.564Z,1.93
2018-08-11T04:13:59.096Z,2.30
2018-08-11T04:16:27.666Z,2.43
2018-08-11T04:18:56.204Z,2.30
2018-08-11T04:21:24.837Z,2.43
2018-08-11T04:23:53.431Z,2.30
2018-08-11T04:26:22.023Z,3.07
2018-08-11T04:28:50.591Z,2.53
2018-08-11T04:31:19.152Z,2.23
2018-08-11T04:33:47.967Z,2.50
2018-08-11T04:36:16.654Z,2.80
2018-08-11T04:38:45.241Z,2.20
2018-08-11T04:41:18.405Z,2.60
2018-08-11T04:43:46.981Z,2.23
2018-08-11T04:46:15.580Z,2.33
2018-08-11T04:48:44.101Z,2.97
2018-08-11T04:51:12.676Z,2.27
2018-08-11T04:53:41.332Z,2.60
2018-08-11T04:56:10.221Z,2.53
2018-08-11T04:58:38.751Z,3.23
2018-08-11T05:01:07.312Z,3.07
2018-08-11T05:03:35.890Z,2.50
2018-08-11T05:06:04.511Z,2.63
2018-08-11T05:08:33.024Z,3.20
2018-08-11T05:11:01.568Z,3.30
2018-08-11T05:13:30.169Z,3.07
2018-08-11T05:15:58.732Z,2.90
2018-08-11T05:18:27.280Z,2.60
2018-08-11T05:20:55.808Z,2.23
2018-08-11T05:23:24.447Z,2.07
2018-08-11T05:25:52.977Z,2.10
2018-08-11T05:28:21.811Z,2.70
2018-08-11T05:30:50.358Z,2.60
2018-08-11T05:33:18.993Z,2.50
2018-08-11T05:35:47.629Z,2.40
2018-08-11T05:38:16.283Z,3.93
2018-08-11T05:40:44.789Z,4.17
2018-08-11T05:43:13.355Z,3.30
2018-08-11T05:45:42.013Z,3.37
2018-08-11T05:48:12.676Z,3.00
2018-08-11T05:50:41.327Z,2.77
2018-08-11T05:53:10.050Z,2.90
2018-08-11T05:55:38.639Z,3.03
2018-08-11T05:58:07.216Z,3.30
2018-08-11T06:00:35.756Z,2.73
2018-08-11T06:03:04.469Z,3.00
2018-08-11T06:05:33.056Z,3.03
2018-08-11T06:08:01.601Z,2.70
2018-08-11T06:10:30.214Z,2.70
2018-08-11T06:12:58.881Z,2.63
2018-08-11T06:15:27.405Z,2.80
2018-08-11T06:17:56.010Z,2.80
2018-08-11T06:20:24.555Z,2.20
2018-08-11T06:22:53.122Z,2.27
2018-08-11T06:25:21.756Z,2.27
2018-08-11T06:27:50.380Z,1.80
2018-08-11T06:30:18.916Z,2.30
2018-08-11T06:32:47.491Z,2.30
2018-08-11T06:35:16.075Z,1.90
2018-08-11T06:37:44.995Z,2.47
2018-08-11T06:40:13.545Z,2.20
2018-08-11T06:42:42.076Z,1.93
2018-08-11T06:45:10.682Z,1.63
2018-08-11T06:47:39.276Z,2.03
2018-08-11T06:50:08.376Z,1.87
2018-08-11T06:52:37.021Z,1.87
2018-08-11T06:55:05.692Z,1.83
2018-08-11T06:57:34.251Z,1.60
2018-08-11T07:00:03.008Z,2.20
2018-08-11T07:02:31.534Z,1.80
2018-08-11T07:05:00.332Z,1.80
2018-08-11T07:07:28.879Z,1.90
2018-08-11T07:09:57.519Z,2.23
2018-08-11T07:12:26.120Z,2.80
2018-08-11T07:14:54.681Z,1.90
2018-08-11T07:17:23.227Z,1.97
2018-08-11T07:19:51.754Z,1.90
2018-08-11T07:22:20.539Z,2.03
2018-08-11T07:24:49.051Z,1.63
2018-08-11T07:27:17.727Z,2.73
2018-08-11T07:29:46.366Z,2.00
2018-08-11T07:32:14.916Z,2.33
2018-08-11T07:34:43.456Z,1.80
2018-08-11T07:37:12.082Z,3.03
2018-08-11T07:39:40.663Z,2.47
2018-08-11T07:42:09.232Z,1.60
2018-08-11T07:44:37.842Z,2.30
2018-08-11T07:47:06.515Z,2.07
2018-08-11T07:49:35.038Z,1.90
2018-08-11T07:52:03.676Z,1.70
2018-08-11T07:54:32.325Z,1.77
2018-08-11T07:57:03.069Z,1.73
2018-08-11T07:59:31.631Z,1.97
2018-08-11T08:02:00.200Z,1.60
2018-08-11T08:04:28.824Z,1.87
2018-08-11T08:06:57.379Z,1.80
2018-08-11T08:09:25.981Z,1.27
2018-08-11T08:11:54.972Z,1.97
2018-08-11T08:14:23.602Z,1.33
2018-08-11T08:16:52.584Z,1.50
2018-08-11T08:19:21.265Z,1.33
2018-08-11T08:21:49.864Z,1.67
2018-08-11T08:24:18.485Z,2.87
2018-08-11T08:26:47.407Z,2.33
2018-08-11T08:29:15.968Z,2.33
2018-08-11T08:31:44.626Z,2.30
2018-08-11T08:34:13.323Z,1.97
2018-08-11T08:36:42.454Z,1.70
2018-08-11T08:39:12.725Z,1.40
2018-08-11T08:41:42.805Z,1.40
2018-08-11T08:44:12.454Z,1.10
2018-08-11T08:46:41.752Z,1.50
2018-08-11T08:49:11.022Z,1.80
2018-08-11T08:51:40.040Z,1.57
2018-08-11T08:54:09.140Z,1.20
2018-08-11T08:56:38.290Z,1.10
2018-08-11T08:59:07.830Z,1.20
2018-08-11T09:01:36.750Z,1.60
2018-08-11T09:04:05.731Z,1.13
2018-08-11T09:06:34.513Z,1.50
2018-08-11T09:09:04.192Z,1.40
2018-08-11T09:11:33.780Z,1.03
2018-08-11T09:14:02.595Z,1.40
2018-08-11T09:16:31.883Z,1.27
2018-08-11T09:19:00.908Z,1.10
2018-08-11T09:21:29.805Z,1.23
2018-08-11T09:23:58.506Z,1.20
2018-08-11T09:26:27.221Z,1.20
2018-08-11T09:28:55.796Z,1.20
2018-08-11T09:31:24.345Z,1.70
2018-08-11T09:33:52.980Z,1.00
2018-08-11T09:36:21.587Z,1.60
2018-08-11T09:38:50.081Z,1.27
2018-08-11T09:41:18.932Z,1.47
2018-08-11T09:43:47.618Z,1.13
2018-08-11T09:46:16.200Z,1.60
2018-08-11T09:48:44.732Z,1.13
2018-08-11T09:51:13.329Z,1.20
2018-08-11T09:53:41.890Z,1.40
2018-08-11T09:56:10.442Z,1.40
2018-08-11T09:58:39.070Z,1.43
2018-08-11T10:01:12.725Z,1.53
2018-08-11T10:03:41.239Z,1.40
2018-08-11T10:06:09.868Z,1.70
2018-08-11T10:08:38.520Z,1.50
2018-08-11T10:11:07.086Z,1.43
2018-08-11T10:13:35.650Z,1.30
2018-08-11T10:16:04.251Z,1.33
2018-08-11T10:18:33.066Z,1.47
2018-08-11T10:21:01.563Z,1.43
2018-08-11T10:23:30.077Z,1.50
2018-08-11T10:25:58.613Z,1.70
2018-08-11T10:28:27.157Z,1.20
2018-08-11T10:30:55.755Z,1.40
2018-08-11T10:33:24.318Z,1.40
2018-08-11T10:35:52.894Z,1.80
2018-08-11T10:38:21.446Z,1.07
2018-08-11T10:40:50.121Z,1.10
2018-08-11T10:43:18.704Z,2.07
2018-08-11T10:45:47.311Z,1.33
2018-08-11T10:48:15.809Z,1.57
2018-08-11T10:50:44.414Z,1.57
2018-08-11T10:53:13.072Z,1.97
2018-08-11T10:55:41.697Z,1.47
2018-08-11T10:58:11.756Z,1.03
2018-08-11T11:00:40.389Z,1.57
2018-08-11T11:03:08.991Z,1.30
2018-08-11T11:05:37.535Z,1.00
2018-08-11T11:08:06.304Z,1.43
2018-08-11T11:10:34.998Z,1.60
2018-08-11T11:13:03.694Z,1.60
2018-08-11T11:15:32.321Z,1.50
2018-08-11T11:18:01.018Z,1.30
2018-08-11T11:20:29.897Z,1.23
2018-08-11T11:22:58.432Z,1.73
2018-08-11T11:25:26.928Z,1.43
2018-08-11T11:27:55.569Z,1.40
2018-08-11T11:30:24.131Z,1.37
2018-08-11T11:32:52.692Z,1.40
2018-08-11T11:35:21.335Z,1.63
2018-08-11T11:37:50.025Z,1.10
2018-08-11T11:40:19.452Z,1.60
2018-08-11T11:42:48.017Z,1.97
2018-08-11T11:45:16.552Z,2.03
2018-08-11T11:47:45.400Z,1.70
2018-08-11T11:50:13.931Z,1.67
2018-08-11T11:52:42.454Z,1.87
2018-08-11T11:55:11.043Z,1.20
2018-08-11T11:57:39.757Z,2.00
2018-08-11T12:00:08.359Z,2.10
2018-08-11T12:02:36.868Z,2.33
2018-08-11T12:05:05.544Z,2.50
2018-08-11T12:07:34.249Z,1.70
2018-08-11T12:10:03.016Z,2.17
2018-08-11T12:12:31.520Z,1.87
2018-08-11T12:15:00.222Z,2.20
2018-08-11T12:17:28.921Z,1.47
2018-08-11T12:19:57.465Z,1.50
2018-08-11T12:22:25.978Z,1.53
2018-08-11T12:24:54.712Z,1.80
2018-08-11T12:27:23.540Z,2.10
2018-08-11T12:29:52.142Z,1.83
2018-08-11T12:32:20.908Z,1.50
2018-08-11T12:34:49.450Z,1.90
2018-08-11T12:37:18.007Z,2.07
2018-08-11T12:39:46.568Z,1.87
2018-08-11T12:42:15.140Z,1.80
2018-08-11T12:44:43.717Z,1.47
2018-08-11T12:47:12.264Z,1.73
2018-08-11T12:49:40.909Z,1.43
2018-08-11T12:52:09.546Z,1.47
2018-08-11T12:54:38.045Z,2.13
2018-08-11T12:57:06.646Z,2.07
2018-08-11T12:59:35.254Z,1.97
2018-08-11T13:02:03.897Z,2.00
2018-08-11T13:04:32.462Z,1.80
2018-08-11T13:07:01.082Z,1.90
2018-08-11T13:09:30.018Z,1.70
2018-08-11T13:11:58.579Z,1.40
2018-08-11T13:14:27.128Z,1.40
2018-08-11T13:16:55.777Z,1.40
2018-08-11T13:19:24.447Z,1.40
2018-08-11T13:21:53.071Z,1.50
2018-08-11T13:24:21.587Z,1.80
2018-08-11T13:26:50.176Z,1.50
2018-08-11T13:29:18.732Z,1.23
2018-08-11T13:31:47.292Z,1.60
2018-08-11T13:34:16.138Z,1.90
2018-08-11T13:36:44.722Z,2.00
2018-08-11T13:39:13.298Z,1.60
2018-08-11T13:41:45.559Z,1.40
2018-08-11T13:44:14.888Z,1.40
2018-08-11T13:46:43.417Z,1.53
2018-08-11T13:49:13.396Z,1.70
2018-08-11T13:51:42.118Z,1.57
2018-08-11T13:54:10.770Z,1.50
2018-08-11T13:56:39.603Z,1.57
2018-08-11T13:59:08.599Z,1.60
2018-08-11T14:01:37.271Z,1.30
2018-08-11T14:04:12.342Z,1.13
2018-08-11T14:06:40.891Z,1.77
2018-08-11T14:09:09.599Z,1.70
2018-08-11T14:11:38.288Z,1.50
2018-08-11T14:14:07.139Z,1.83
2018-08-11T14:16:35.688Z,1.30
2018-08-11T14:19:04.269Z,1.60
2018-08-11T14:21:32.936Z,1.30
2018-08-11T14:24:01.452Z,1.40
2018-08-11T14:26:30.241Z,1.37
2018-08-11T14:28:59.039Z,1.33
2018-08-11T14:31:30.895Z,1.13
2018-08-11T14:33:59.589Z,1.57
2018-08-11T14:36:28.185Z,1.40
2018-08-11T14:38:56.860Z,1.40
2018-08-11T14:41:25.512Z,1.50
2018-08-11T14:43:54.209Z,1.53
2018-08-11T14:46:22.863Z,1.17
2018-08-11T14:48:51.359Z,0.90
2018-08-11T14:51:20.152Z,0.90
2018-08-11T14:53:48.828Z,0.90
2018-08-11T14:56:17.382Z,1.23
2018-08-11T14:58:45.950Z,1.23
2018-08-11T15:01:14.565Z,1.20
2018-08-11T15:03:43.183Z,1.40
2018-08-11T15:06:11.768Z,0.97
2018-08-11T15:08:40.321Z,1.17
2018-08-11T15:11:08.895Z,1.03
2018-08-11T15:13:37.643Z,1.10
2018-08-11T15:16:06.164Z,1.20
2018-08-11T15:18:34.780Z,0.90
2018-08-11T15:21:03.425Z,1.60
2018-08-11T15:23:31.944Z,1.60
2018-08-11T15:26:00.528Z,1.40
2018-08-11T15:28:29.124Z,1.20
2018-08-11T15:30:57.669Z,1.23
2018-08-11T15:33:26.285Z,1.50
2018-08-11T15:35:54.809Z,1.33
2018-08-11T15:38:23.467Z,1.40
2018-08-11T15:40:52.272Z,1.20
2018-08-11T15:43:20.796Z,1.93
2018-08-11T15:45:49.384Z,1.10
2018-08-11T15:48:18.097Z,1.50
2018-08-11T15:50:46.606Z,1.50
2018-08-11T15:53:15.112Z,1.80
2018-08-11T15:55:43.657Z,1.50
2018-08-11T15:58:12.182Z,1.30
2018-08-11T16:00:40.713Z,1.57
2018-08-11T16:03:09.366Z,1.30
2018-08-11T16:05:37.863Z,1.70
2018-08-11T16:08:06.401Z,1.87
2018-08-11T16:10:35.028Z,1.67
2018-08-11T16:13:03.580Z,1.40
2018-08-11T16:15:32.124Z,1.20
2018-08-11T16:18:00.652Z,1.30
2018-08-11T16:20:29.466Z,1.10
2018-08-11T16:22:58.157Z,1.00
2018-08-11T16:25:26.800Z,1.00
2018-08-11T16:27:55.348Z,1.00
2018-08-11T16:30:23.903Z,1.17
2018-08-11T16:32:52.547Z,1.40
2018-08-11T16:35:21.108Z,1.20
2018-08-11T16:37:49.640Z,1.00
2018-08-11T16:40:18.184Z,1.87
2018-08-11T16:42:46.802Z,1.10
2018-08-11T16:45:15.405Z,0.80
2018-08-11T16:47:43.942Z,1.03
2018-08-11T16:50:12.605Z,1.37
2018-08-11T16:52:41.139Z,1.00
2018-08-11T16:55:09.685Z,1.47
2018-08-11T16:57:38.188Z,1.23
2018-08-11T17:00:08.988Z,1.27
2018-08-11T17:02:37.539Z,1.20
2018-08-11T17:05:06.239Z,1.10
2018-08-11T17:07:35.043Z,1.53
2018-08-11T17:10:03.816Z,1.30
2018-08-11T17:12:32.457Z,1.50
2018-08-11T17:15:01.109Z,1.00
2018-08-11T17:17:29.624Z,1.30
2018-08-11T17:19:58.291Z,1.37
2018-08-11T17:22:26.958Z,1.30
2018-08-11T17:24:55.467Z,1.10
2018-08-11T17:27:24.032Z,1.30
2018-08-11T17:29:53.585Z,1.00
2018-08-11T17:32:22.223Z,1.20
2018-08-11T17:34:50.931Z,2.10
2018-08-11T17:37:19.979Z,1.53
2018-08-11T17:39:48.993Z,1.30
2018-08-11T17:42:18.239Z,1.00
2018-08-11T17:44:48.080Z,1.20
2018-08-11T17:47:17.262Z,1.30
2018-08-11T17:49:46.083Z,1.07
2018-08-11T17:52:14.852Z,1.20
2018-08-11T17:54:43.641Z,1.00
2018-08-11T17:57:12.420Z,1.77
2018-08-11T17:59:41.142Z,1.43
2018-08-11T18:02:09.904Z,1.50
2018-08-11T18:04:38.568Z,1.20
2018-08-11T18:07:07.364Z,1.30
2018-08-11T18:09:35.923Z,1.27
2018-08-11T18:12:04.489Z,3.23
2018-08-11T18:14:33.130Z,1.20
2018-08-11T18:17:01.672Z,1.57
2018-08-11T18:19:30.719Z,1.30
2018-08-11T18:21:59.315Z,1.80
2018-08-11T18:24:27.966Z,1.70
2018-08-11T18:26:56.565Z,1.60
2018-08-11T18:29:25.423Z,2.17
2018-08-11T18:31:54.115Z,1.70
2018-08-11T18:34:22.759Z,2.07
2018-08-11T18:36:51.513Z,1.90
2018-08-11T18:39:20.096Z,1.90
2018-08-11T18:41:48.860Z,2.40
2018-08-11T18:44:17.767Z,2.00
2018-08-11T18:46:46.521Z,2.00
2018-08-11T18:49:15.292Z,2.33
2018-08-11T18:51:44.021Z,2.87
2018-08-11T18:54:12.558Z,2.33
2018-08-11T18:56:41.240Z,2.23
2018-08-11T18:59:09.932Z,1.67
2018-08-11T19:01:38.465Z,2.87
2018-08-11T19:04:07.248Z,1.70
2018-08-11T19:06:36.750Z,1.90
2018-08-11T19:09:08.796Z,1.93
2018-08-11T19:11:37.545Z,1.70
2018-08-11T19:14:06.173Z,1.80
2018-08-11T19:16:34.807Z,1.70
2018-08-11T19:19:03.398Z,1.67
2018-08-11T19:21:32.044Z,2.20
2018-08-11T19:24:00.729Z,1.77
2018-08-11T19:26:29.504Z,1.23
2018-08-11T19:28:58.114Z,1.57
2018-08-11T19:31:26.705Z,1.83
2018-08-11T19:33:55.299Z,1.50
2018-08-11T19:36:23.903Z,1.70
2018-08-11T19:38:52.700Z,1.73
2018-08-11T19:41:21.448Z,1.67
2018-08-11T19:43:50.029Z,2.37
2018-08-11T19:46:18.803Z,1.87
2018-08-11T19:48:47.425Z,2.40
2018-08-11T19:51:16.159Z,3.50
2018-08-11T19:53:44.766Z,2.00
2018-08-11T19:56:13.437Z,2.10
2018-08-11T19:58:42.091Z,2.57
2018-08-11T20:01:10.813Z,2.10
2018-08-11T20:03:39.511Z,2.40
2018-08-11T20:06:08.262Z,2.00
2018-08-11T20:08:37.212Z,2.50
2018-08-11T20:11:05.884Z,1.90
2018-08-11T20:13:34.447Z,2.10
2018-08-11T20:16:03.089Z,2.30
2018-08-11T20:18:31.717Z,2.23
2018-08-11T20:21:00.260Z,2.40
2018-08-11T20:23:28.967Z,2.10
2018-08-11T20:25:57.596Z,2.10
2018-08-11T20:28:26.193Z,2.50
2018-08-11T20:30:54.779Z,2.40
2018-08-11T20:33:23.400Z,2.40
2018-08-11T20:35:52.033Z,1.90
2018-08-11T20:38:20.612Z,2.10
2018-08-11T20:40:49.124Z,1.97
2018-08-11T20:43:17.775Z,2.20
2018-08-11T20:45:46.682Z,1.80
2018-08-11T20:48:15.316Z,2.60
2018-08-11T20:50:43.853Z,2.57
2018-08-11T20:53:12.599Z,2.10
2018-08-11T20:55:41.616Z,2.50
2018-08-11T20:58:10.138Z,2.03
2018-08-11T21:00:38.672Z,2.20
2018-08-11T21:03:10.175Z,2.50
2018-08-11T21:05:38.873Z,2.37
2018-08-11T21:08:07.980Z,2.73
2018-08-11T21:10:36.625Z,2.87
2018-08-11T21:13:05.189Z,2.37
2018-08-11T21:15:33.794Z,3.93
2018-08-11T21:18:02.443Z,4.00
2018-08-11T21:20:31.202Z,3.40
2018-08-11T21:22:59.909Z,3.00
2018-08-11T21:25:28.545Z,3.37
2018-08-11T21:27:57.118Z,3.13
2018-08-11T21:30:25.737Z,3.03
2018-08-11T21:32:54.434Z,2.67
2018-08-11T21:35:22.980Z,3.00
2018-08-11T21:37:51.524Z,2.60
2018-08-11T21:40:20.130Z,2.93
2018-08-11T21:42:48.760Z,2.80
2018-08-11T21:45:17.349Z,2.43
2018-08-11T21:47:45.911Z,2.93
2018-08-11T21:50:14.566Z,2.13
2018-08-11T21:52:43.336Z,2.50
2018-08-11T21:55:11.918Z,2.40
2018-08-11T21:57:40.556Z,2.50
2018-08-11T22:00:35.988Z,2.60
2018-08-11T22:03:05.543Z,2.40
2018-08-11T22:05:34.263Z,2.70
2018-08-11T22:08:03.493Z,2.70
2018-08-11T22:10:32.135Z,2.53
2018-08-11T22:13:00.760Z,2.97
2018-08-11T22:15:29.575Z,2.23
2018-08-11T22:17:58.245Z,2.27
2018-08-11T22:20:26.869Z,4.43
2018-08-11T22:22:55.537Z,3.50
2018-08-11T22:25:24.106Z,3.73
2018-08-11T22:27:52.664Z,3.60
2018-08-11T22:30:21.308Z,3.10
2018-08-11T22:32:49.947Z,2.40
2018-08-11T22:35:18.572Z,2.20
2018-08-11T22:37:47.164Z,2.67
2018-08-11T22:40:15.745Z,2.67
2018-08-11T22:42:44.379Z,2.40
2018-08-11T22:45:13.113Z,2.70
2018-08-11T22:47:41.789Z,2.20
2018-08-11T22:50:12.262Z,2.57
2018-08-11T22:52:40.920Z,2.87
2018-08-11T22:55:09.753Z,2.73
2018-08-11T22:57:38.333Z,2.80
2018-08-11T23:00:17.695Z,2.67
2018-08-11T23:02:46.592Z,2.17
2018-08-11T23:05:15.947Z,2.30
2018-08-11T23:07:44.754Z,2.10
2018-08-11T23:10:14.524Z,2.27
2018-08-11T23:12:44.356Z,2.17
2018-08-11T23:15:15.159Z,2.30
2018-08-11T23:17:44.982Z,1.90
2018-08-11T23:20:13.935Z,2.30
2018-08-11T23:22:42.503Z,2.10
2018-08-11T23:25:11.468Z,2.40
2018-08-11T23:27:40.066Z,2.07
2018-08-11T23:30:11.311Z,1.63
2018-08-11T23:32:40.612Z,2.13
2018-08-11T23:35:09.489Z,2.20
2018-08-11T23:37:38.036Z,2.30
2018-08-11T23:40:07.474Z,1.80
2018-08-11T23:42:36.334Z,2.00
2018-08-11T23:45:07.296Z,1.70
2018-08-11T23:47:36.028Z,2.60
2018-08-11T23:50:05.315Z,2.00
2018-08-11T23:52:33.867Z,2.20
2018-08-11T23:55:02.512Z,2.43
2018-08-11T23:57:31.140Z,2.70
2018-08-11T23:59:59.778Z,2.33
